createdAt,value
2018-08-04T00:00:32.899Z,27.20
2018-08-04T00:03:02.871Z,27.23
2018-08-04T00:05:33.129Z,27.30
2018-08-04T00:08:03.126Z,27.32
2018-08-04T00:10:33.372Z,27.27
2018-08-04T00:13:03.086Z,27.25
2018-08-04T00:15:32.806Z,27.20
2018-08-04T00:18:02.655Z,27.15
2018-08-04T00:20:32.320Z,27.06
2018-08-04T00:23:02.068Z,26.98
2018-08-04T00:25:32.088Z,26.91
2018-08-04T00:28:02.302Z,26.92
2018-08-04T00:30:32.787Z,26.87
2018-08-04T00:33:02.445Z,26.80
2018-08-04T00:35:32.147Z,26.78
2018-08-04T00:38:02.122Z,26.77
2018-08-04T00:40:31.838Z,26.77
2018-08-04T00:43:01.482Z,26.71
2018-08-04T00:45:31.145Z,26.62
2018-08-04T00:48:00.831Z,26.58
2018-08-04T00:50:30.562Z,26.54
2018-08-04T00:53:00.514Z,26.45
2018-08-04T00:55:30.159Z,26.38
2018-08-04T00:57:59.765Z,26.33
2018-08-04T01:00:29.486Z,26.28
2018-08-04T01:02:59.556Z,26.27
2018-08-04T01:05:29.234Z,26.18
2018-08-04T01:07:59.023Z,26.20
2018-08-04T01:10:28.656Z,26.18
2018-08-04T01:12:58.416Z,26.20
2018-08-04T01:15:28.072Z,26.14
2018-08-04T01:17:58.066Z,25.96
2018-08-04T01:20:27.705Z,25.87
2018-08-04T01:22:57.340Z,25.83
2018-08-04T01:25:26.978Z,25.78
2018-08-04T01:27:56.618Z,25.79
2018-08-04T01:30:26.296Z,25.79
2018-08-04T01:32:55.932Z,25.67
2018-08-04T01:35:26.229Z,25.65
2018-08-04T01:37:55.854Z,25.59
2018-08-04T01:40:25.774Z,25.61
2018-08-04T01:42:55.465Z,25.58
2018-08-04T01:45:25.093Z,25.59
2018-08-04T01:47:54.857Z,25.52
2018-08-04T01:50:24.623Z,25.47
2018-08-04T01:52:54.297Z,25.45
2018-08-04T01:55:24.304Z,25.51
2018-08-04T01:57:53.951Z,25.55
2018-08-04T02:00:23.969Z,25.50
2018-08-04T02:02:53.666Z,25.47
2018-08-04T02:05:23.313Z,25.34
2018-08-04T02:07:52.953Z,25.27
2018-08-04T02:10:22.767Z,25.19
2018-08-04T02:12:52.751Z,25.15
2018-08-04T02:15:22.353Z,25.15
2018-08-04T02:17:52.417Z,25.22
2018-08-04T02:20:22.243Z,25.10
2018-08-04T02:22:51.919Z,24.84
2018-08-04T02:25:21.746Z,24.87
2018-08-04T02:27:51.482Z,24.98
2018-08-04T02:30:21.190Z,25.08
2018-08-04T02:32:51.325Z,25.18
2018-08-04T02:35:20.993Z,25.21
2018-08-04T02:37:50.623Z,25.17
2018-08-04T02:40:20.321Z,25.15
2018-08-04T02:42:50.452Z,25.21
2018-08-04T02:45:20.135Z,25.20
2018-08-04T02:47:49.795Z,25.01
2018-08-04T02:50:19.530Z,24.87
2018-08-04T02:52:49.373Z,24.83
2018-08-04T02:55:19.172Z,24.75
2018-08-04T02:57:48.826Z,24.75
2018-08-04T03:00:18.493Z,24.80
2018-08-04T03:02:48.141Z,24.77
2018-08-04T03:05:18.045Z,24.74
2018-08-04T03:07:47.969Z,24.73
2018-08-04T03:10:17.669Z,24.72
2018-08-04T03:12:47.388Z,24.67
2018-08-04T03:15:17.362Z,24.57
2018-08-04T03:17:47.481Z,24.44
2018-08-04T03:20:17.287Z,24.40
2018-08-04T03:22:46.914Z,24.31
2018-08-04T03:25:16.629Z,24.34
2018-08-04T03:27:46.424Z,24.37
2018-08-04T03:30:16.169Z,24.32
2018-08-04T03:32:45.844Z,24.30
2018-08-04T03:35:15.554Z,24.22
2018-08-04T03:37:45.202Z,24.12
2018-08-04T03:40:14.850Z,24.07
2018-08-04T03:42:44.588Z,24.08
2018-08-04T03:45:14.310Z,23.98
2018-08-04T03:47:43.995Z,23.86
2018-08-04T03:50:13.686Z,23.79
2018-08-04T03:52:43.371Z,23.69
2018-08-04T03:55:13.365Z,23.69
2018-08-04T03:57:43.012Z,23.62
2018-08-04T04:00:12.685Z,23.62
2018-08-04T04:02:42.685Z,23.70
2018-08-04T04:05:12.406Z,23.82
2018-08-04T04:07:42.162Z,23.94
2018-08-04T04:10:11.857Z,23.90
2018-08-04T04:12:41.485Z,23.82
2018-08-04T04:15:11.580Z,23.75
2018-08-04T04:17:45.985Z,23.52
2018-08-04T04:20:17.045Z,23.44
2018-08-04T04:22:47.133Z,23.45
2018-08-04T04:25:16.753Z,23.38
2018-08-04T04:27:46.475Z,23.25
2018-08-04T04:30:16.360Z,23.32
2018-08-04T04:32:46.049Z,23.45
2018-08-04T04:35:15.750Z,23.55
2018-08-04T04:37:45.457Z,23.56
2018-08-04T04:40:15.078Z,23.53
2018-08-04T04:42:44.697Z,23.51
2018-08-04T04:45:14.307Z,23.62
2018-08-04T04:47:44.296Z,23.68
2018-08-04T04:50:13.956Z,23.74
2018-08-04T04:52:43.801Z,23.81
2018-08-04T04:55:13.501Z,23.79
2018-08-04T04:57:43.458Z,23.79
2018-08-04T05:00:13.167Z,23.75
2018-08-04T05:02:43.161Z,23.76
2018-08-04T05:05:12.924Z,23.69
2018-08-04T05:07:42.690Z,23.74
2018-08-04T05:10:12.394Z,23.73
2018-08-04T05:12:42.489Z,23.74
2018-08-04T05:15:12.433Z,23.76
2018-08-04T05:17:42.115Z,23.79
2018-08-04T05:20:12.183Z,23.88
2018-08-04T05:22:41.882Z,23.96
2018-08-04T05:25:11.626Z,23.97
2018-08-04T05:27:42.041Z,23.98
2018-08-04T05:30:11.852Z,23.92
2018-08-04T05:32:41.552Z,23.82
2018-08-04T05:35:11.371Z,23.83
2018-08-04T05:37:41.135Z,23.80
2018-08-04T05:40:10.885Z,23.68
2018-08-04T05:42:41.813Z,23.59
2018-08-04T05:45:12.979Z,23.59
2018-08-04T05:47:42.910Z,23.56
2018-08-04T05:50:12.976Z,23.50
2018-08-04T05:52:42.982Z,23.51
2018-08-04T05:55:12.669Z,23.53
2018-08-04T05:57:42.786Z,23.51
2018-08-04T06:00:12.488Z,23.53
2018-08-04T06:02:43.289Z,23.62
2018-08-04T06:05:13.370Z,23.64
2018-08-04T06:07:43.097Z,23.62
2018-08-04T06:10:13.080Z,23.58
2018-08-04T06:12:43.059Z,23.52
2018-08-04T06:15:13.181Z,23.49
2018-08-04T06:17:42.946Z,23.54
2018-08-04T06:20:12.603Z,23.54
2018-08-04T06:22:42.726Z,23.53
2018-08-04T06:25:12.451Z,23.56
2018-08-04T06:27:42.282Z,23.49
2018-08-04T06:30:13.507Z,23.41
2018-08-04T06:32:43.540Z,23.40
2018-08-04T06:38:01.652Z,23.82
2018-08-04T06:40:31.481Z,23.98
2018-08-04T06:43:01.513Z,24.18
2018-08-04T06:45:31.309Z,24.38
2018-08-04T06:48:01.308Z,24.37
2018-08-04T06:50:31.144Z,24.41
2018-08-04T06:53:01.062Z,24.55
2018-08-04T06:55:31.517Z,24.75
2018-08-04T06:58:01.170Z,24.88
2018-08-04T07:00:30.831Z,24.97
2018-08-04T07:03:00.497Z,25.02
2018-08-04T07:05:30.096Z,25.14
2018-08-04T07:07:59.749Z,25.27
2018-08-04T07:10:29.366Z,25.25
2018-08-04T07:12:59.251Z,25.27
2018-08-04T07:15:29.282Z,25.43
2018-08-04T07:17:59.020Z,25.33
2018-08-04T07:20:29.011Z,25.37
2018-08-04T07:22:58.731Z,25.61
2018-08-04T07:25:28.544Z,25.94
2018-08-04T07:27:58.141Z,26.06
2018-08-04T07:30:28.001Z,25.99
2018-08-04T07:32:57.975Z,26.04
2018-08-04T07:35:27.692Z,26.06
2018-08-04T07:37:57.287Z,26.26
2018-08-04T07:40:26.926Z,26.44
2018-08-04T07:42:56.833Z,26.59
2018-08-04T07:45:26.539Z,26.47
2018-08-04T07:47:56.752Z,26.49
2018-08-04T07:50:26.366Z,26.64
2018-08-04T07:52:56.128Z,26.64
2018-08-04T07:55:26.375Z,26.70
2018-08-04T07:57:56.649Z,26.90
2018-08-04T08:00:26.432Z,27.21
2018-08-04T08:02:56.165Z,27.29
2018-08-04T08:05:26.567Z,27.57
2018-08-04T08:07:56.269Z,27.67
2018-08-04T08:10:26.062Z,27.95
2018-08-04T08:12:55.926Z,28.15
2018-08-04T08:15:25.664Z,28.35
2018-08-04T08:17:55.875Z,28.58
2018-08-04T08:20:25.559Z,28.56
2018-08-04T08:22:55.511Z,28.64
2018-08-04T08:25:25.514Z,28.83
2018-08-04T08:27:55.272Z,28.72
2018-08-04T08:30:25.020Z,28.80
2018-08-04T08:32:54.709Z,28.97
2018-08-04T08:35:24.924Z,29.33
2018-08-04T08:37:55.037Z,29.75
2018-08-04T08:40:24.876Z,29.89
2018-08-04T08:42:54.827Z,29.88
2018-08-04T08:45:24.634Z,29.77
2018-08-04T08:47:54.372Z,30.01
2018-08-04T08:50:24.052Z,30.00
2018-08-04T08:52:54.687Z,30.22
2018-08-04T08:55:24.457Z,30.68
2018-08-04T08:57:54.141Z,30.94
2018-08-04T09:00:24.134Z,31.09
2018-08-04T09:02:53.774Z,31.28
2018-08-04T09:05:24.018Z,31.54
2018-08-04T09:07:53.808Z,31.76
2018-08-04T09:10:23.777Z,31.79
2018-08-04T09:12:53.504Z,32.14
2018-08-04T09:15:23.172Z,32.29
2018-08-04T09:17:53.187Z,32.31
2018-08-04T09:20:22.944Z,32.51
2018-08-04T09:22:54.215Z,32.72
2018-08-04T09:25:24.072Z,32.56
2018-08-04T09:27:56.675Z,32.21
2018-08-04T09:30:30.205Z,32.25
2018-08-04T09:33:03.492Z,32.14
2018-08-04T09:35:37.228Z,31.89
2018-08-04T09:38:10.496Z,32.00
2018-08-04T09:40:43.237Z,31.85
2018-08-04T09:43:16.529Z,32.08
2018-08-04T09:45:48.048Z,32.03
2018-08-04T09:48:20.347Z,31.30
2018-08-04T09:50:55.053Z,31.44
2018-08-04T09:53:28.835Z,31.70
2018-08-04T09:56:00.389Z,31.91
2018-08-04T09:58:30.089Z,32.15
2018-08-04T10:01:05.452Z,32.03
2018-08-04T10:03:35.702Z,31.36
2018-08-04T10:06:05.686Z,31.27
2018-08-04T10:08:35.399Z,31.83
2018-08-04T10:11:05.207Z,31.27
2018-08-04T10:13:37.752Z,30.67
2018-08-04T10:16:11.049Z,31.04
2018-08-04T10:18:44.468Z,31.26
2018-08-04T10:21:16.868Z,31.55
2018-08-04T10:23:50.052Z,31.88
2018-08-04T10:26:23.703Z,32.37
2018-08-04T10:28:56.806Z,32.31
2018-08-04T10:31:29.654Z,32.17
2018-08-04T10:34:02.340Z,32.20
2018-08-04T10:36:35.528Z,32.11
2018-08-04T10:39:11.543Z,32.14
2018-08-04T10:41:44.915Z,31.90
2018-08-04T10:44:18.119Z,31.69
2018-08-04T10:46:51.694Z,31.96
2018-08-04T10:49:24.799Z,32.34
2018-08-04T10:51:57.585Z,32.71
2018-08-04T10:54:30.338Z,33.03
2018-08-04T10:57:03.709Z,32.82
2018-08-04T10:59:36.692Z,32.20
2018-08-04T11:02:10.353Z,32.08
2018-08-04T11:04:40.244Z,32.31
2018-08-04T11:07:13.501Z,32.94
2018-08-04T11:09:46.711Z,33.45
2018-08-04T11:12:20.591Z,33.80
2018-08-04T11:14:54.263Z,34.23
2018-08-04T11:17:27.732Z,33.78
2018-08-04T11:20:01.092Z,33.97
2018-08-04T11:22:35.059Z,34.10
2018-08-04T11:25:08.594Z,33.78
2018-08-04T11:27:41.656Z,33.50
2018-08-04T11:30:14.847Z,33.55
2018-08-04T11:32:47.692Z,33.65
2018-08-04T11:35:21.719Z,33.53
2018-08-04T11:37:59.212Z,33.30
2018-08-04T11:40:32.897Z,33.20
2018-08-04T11:43:06.110Z,32.67
2018-08-04T11:45:39.245Z,32.70
2018-08-04T11:48:12.443Z,32.76
2018-08-04T11:50:51.111Z,32.72
2018-08-04T11:53:26.459Z,32.60
2018-08-04T11:55:59.342Z,32.66
2018-08-04T11:58:32.443Z,32.48
2018-08-04T12:01:05.522Z,32.51
2018-08-04T12:03:39.265Z,32.40
2018-08-04T12:06:12.885Z,32.34
2018-08-04T12:08:46.012Z,32.29
2018-08-04T12:11:19.244Z,32.04
2018-08-04T12:13:53.166Z,32.07
2018-08-04T12:16:26.335Z,31.91
2018-08-04T12:18:56.083Z,31.97
2018-08-04T12:21:29.510Z,32.15
2018-08-04T12:24:02.339Z,32.03
2018-08-04T12:26:34.589Z,31.90
2018-08-04T12:29:07.474Z,31.90
2018-08-04T12:31:40.127Z,31.71
2018-08-04T12:34:12.263Z,31.75
2018-08-04T12:36:46.382Z,31.81
2018-08-04T12:39:19.832Z,31.86
2018-08-04T12:41:53.242Z,32.00
2018-08-04T12:44:26.866Z,32.20
2018-08-04T12:46:56.683Z,32.35
2018-08-04T12:49:30.123Z,32.41
2018-08-04T12:52:03.603Z,32.46
2018-08-04T12:54:36.893Z,32.44
2018-08-04T12:57:10.323Z,32.37
2018-08-04T12:59:40.721Z,32.36
2018-08-04T13:02:13.879Z,32.20
2018-08-04T13:04:46.866Z,32.28
2018-08-04T13:07:19.957Z,32.25
2018-08-04T13:09:52.795Z,32.11
2018-08-04T13:12:26.256Z,32.16
2018-08-04T13:14:59.180Z,32.11
2018-08-04T13:17:32.485Z,32.05
2018-08-04T13:20:05.741Z,31.95
2018-08-04T13:22:39.438Z,31.98
2018-08-04T13:25:12.996Z,32.05
2018-08-04T13:27:46.285Z,31.91
2018-08-04T13:30:19.651Z,31.97
2018-08-04T13:32:52.364Z,32.02
2018-08-04T13:35:25.781Z,31.99
2018-08-04T13:37:58.919Z,31.91
2018-08-04T13:40:32.380Z,31.86
2018-08-04T13:43:05.301Z,32.02
2018-08-04T13:45:39.286Z,32.12
2018-08-04T13:48:12.929Z,32.29
2018-08-04T13:50:45.412Z,32.28
2018-08-04T13:53:18.342Z,32.34
2018-08-04T13:55:51.721Z,32.28
2018-08-04T13:58:25.314Z,32.20
2018-08-04T14:00:59.171Z,32.23
2018-08-04T14:03:30.553Z,32.28
2018-08-04T14:06:03.827Z,32.30
2018-08-04T14:08:36.727Z,32.16
2018-08-04T14:11:08.195Z,32.20
2018-08-04T14:13:41.634Z,32.35
2018-08-04T14:16:15.456Z,32.38
2018-08-04T14:18:48.934Z,32.31
2018-08-04T14:21:22.127Z,32.27
2018-08-04T14:23:55.621Z,32.04
2018-08-04T14:26:28.800Z,32.10
2018-08-04T14:29:01.941Z,32.16
2018-08-04T14:31:31.742Z,32.06
2018-08-04T14:34:05.743Z,32.10
2018-08-04T14:36:39.439Z,32.12
2018-08-04T14:39:15.083Z,32.28
2018-08-04T14:41:48.801Z,32.46
2018-08-04T14:44:22.593Z,32.60
2018-08-04T14:46:56.003Z,32.59
2018-08-04T14:49:25.972Z,32.69
2018-08-04T14:51:59.855Z,32.50
2018-08-04T14:54:33.686Z,32.36
2018-08-04T14:57:07.443Z,32.32
2018-08-04T14:59:41.687Z,32.25
2018-08-04T15:02:15.196Z,32.17
2018-08-04T15:04:59.208Z,32.30
2018-08-04T15:07:29.733Z,32.21
2018-08-04T15:10:02.535Z,32.27
2018-08-04T15:12:35.988Z,32.47
2018-08-04T15:15:10.877Z,32.46
2018-08-04T15:17:44.215Z,32.36
2018-08-04T15:20:17.720Z,32.21
2018-08-04T15:22:50.774Z,32.14
2018-08-04T15:25:20.646Z,32.16
2018-08-04T15:27:50.356Z,32.13
2018-08-04T15:30:20.271Z,32.15
2018-08-04T15:32:49.979Z,32.11
2018-08-04T15:35:19.646Z,32.13
2018-08-04T15:37:49.302Z,32.00
2018-08-04T15:40:19.279Z,32.07
2018-08-04T15:42:49.117Z,32.10
2018-08-04T15:45:19.350Z,32.05
2018-08-04T15:47:49.055Z,32.11
2018-08-04T15:50:19.057Z,32.06
2018-08-04T15:52:48.838Z,32.08
2018-08-04T15:55:19.361Z,32.08
2018-08-04T15:57:49.314Z,32.11
2018-08-04T16:00:19.009Z,32.07
2018-08-04T16:02:49.234Z,32.02
2018-08-04T16:05:19.207Z,31.92
2018-08-04T16:07:49.030Z,31.95
2018-08-04T16:10:19.988Z,31.92
2018-08-04T16:12:49.691Z,31.97
2018-08-04T16:15:19.526Z,32.04
2018-08-04T16:17:49.644Z,31.99
2018-08-04T16:20:20.534Z,32.10
2018-08-04T16:22:51.252Z,31.94
2018-08-04T16:25:22.069Z,32.03
2018-08-04T16:27:51.824Z,32.00
2018-08-04T16:30:26.765Z,32.04
2018-08-04T16:32:56.600Z,31.99
2018-08-04T16:35:26.326Z,31.97
2018-08-04T16:37:56.371Z,31.98
2018-08-04T16:40:26.474Z,31.93
2018-08-04T16:42:56.359Z,32.00
2018-08-04T16:45:26.065Z,31.96
2018-08-04T16:47:56.223Z,31.79
2018-08-04T16:50:26.289Z,31.77
2018-08-04T16:52:56.104Z,31.66
2018-08-04T16:55:26.194Z,31.71
2018-08-04T16:57:55.870Z,31.69
2018-08-04T17:00:25.527Z,31.60
2018-08-04T17:02:55.182Z,31.56
2018-08-04T17:05:25.178Z,31.61
2018-08-04T17:07:55.063Z,31.59
2018-08-04T17:10:26.112Z,31.61
2018-08-04T17:12:55.976Z,31.46
2018-08-04T17:15:25.839Z,31.46
2018-08-04T17:17:55.582Z,31.45
2018-08-04T17:20:25.247Z,31.43
2018-08-04T17:22:54.988Z,31.34
2018-08-04T17:25:24.698Z,31.26
2018-08-04T17:27:54.478Z,31.15
2018-08-04T17:30:45.858Z,31.10
2018-08-04T17:33:15.701Z,30.96
2018-08-04T17:35:45.530Z,30.71
2018-08-04T17:38:15.526Z,30.64
2018-08-04T17:40:45.265Z,30.55
2018-08-04T17:43:16.826Z,30.65
2018-08-04T17:45:46.660Z,30.60
2018-08-04T17:48:16.435Z,30.44
2018-08-04T17:50:46.459Z,30.36
2018-08-04T17:53:18.834Z,30.32
2018-08-04T17:55:48.526Z,30.27
2018-08-04T17:58:19.081Z,30.26
2018-08-04T18:00:50.357Z,30.12
2018-08-04T18:03:20.258Z,30.10
2018-08-04T18:05:50.216Z,30.03
2018-08-04T18:08:20.168Z,29.98
2018-08-04T18:10:50.101Z,29.86
2018-08-04T18:13:19.769Z,29.80
2018-08-04T18:15:49.442Z,29.63
2018-08-04T18:18:19.146Z,29.69
2018-08-04T18:20:49.266Z,29.69
2018-08-04T18:23:19.221Z,29.56
2018-08-04T18:25:48.934Z,29.51
2018-08-04T18:28:19.300Z,29.27
2018-08-04T18:30:49.118Z,29.32
2018-08-04T18:33:18.960Z,29.35
2018-08-04T18:35:50.627Z,29.40
2018-08-04T18:38:21.083Z,29.42
2018-08-04T18:40:51.711Z,29.21
2018-08-04T18:43:21.640Z,29.11
2018-08-04T18:45:51.799Z,29.05
2018-08-04T18:48:21.538Z,28.89
2018-08-04T18:50:51.198Z,28.92
2018-08-04T18:53:20.842Z,28.96
2018-08-04T18:55:50.834Z,28.97
2018-08-04T18:58:20.613Z,28.93
2018-08-04T19:00:50.393Z,28.77
2018-08-04T19:03:20.019Z,28.54
2018-08-04T19:05:49.889Z,28.47
2018-08-04T19:08:19.650Z,28.45
2018-08-04T19:10:49.327Z,28.49
2018-08-04T19:13:18.988Z,28.46
2018-08-04T19:15:48.753Z,28.58
2018-08-04T19:18:18.643Z,28.56
2018-08-04T19:20:48.306Z,28.25
2018-08-04T19:23:18.239Z,28.32
2018-08-04T19:25:47.857Z,28.29
2018-08-04T19:28:17.651Z,28.22
2018-08-04T19:30:47.446Z,28.17
2018-08-04T19:33:17.093Z,28.04
2018-08-04T19:35:46.858Z,27.87
2018-08-04T19:38:16.854Z,27.86
2018-08-04T19:40:46.854Z,27.75
2018-08-04T19:43:16.557Z,27.59
2018-08-04T19:45:46.287Z,27.60
2018-08-04T19:48:16.648Z,27.57
2018-08-04T19:50:46.746Z,27.54
2018-08-04T19:53:16.967Z,27.50
2018-08-04T19:55:46.931Z,27.61
2018-08-04T19:58:17.440Z,27.61
2018-08-04T20:00:47.322Z,27.52
2018-08-04T20:03:19.473Z,27.42
2018-08-04T20:05:49.272Z,27.47
2018-08-04T20:08:19.122Z,27.28
2018-08-04T20:10:48.988Z,27.23
2018-08-04T20:13:18.964Z,27.08
2018-08-04T20:15:48.634Z,27.17
2018-08-04T20:18:18.606Z,27.12
2018-08-04T20:20:48.980Z,27.13
2018-08-04T20:23:18.947Z,27.04
2018-08-04T20:25:48.653Z,27.08
2018-08-04T20:28:18.645Z,27.04
2018-08-04T20:30:48.748Z,26.96
2018-08-04T20:33:18.506Z,26.88
2018-08-04T20:35:48.534Z,26.65
2018-08-04T20:38:18.211Z,26.49
2018-08-04T20:40:47.852Z,26.54
2018-08-04T20:43:17.863Z,26.65
2018-08-04T20:45:47.546Z,26.63
2018-08-04T20:48:17.242Z,26.50
2018-08-04T20:50:46.877Z,26.56
2018-08-04T20:53:16.573Z,26.61
2018-08-04T20:55:46.555Z,26.53
2018-08-04T20:58:16.279Z,26.40
2018-08-04T21:01:01.757Z,26.26
2018-08-04T21:03:31.582Z,26.28
2018-08-04T21:06:01.453Z,26.11
2018-08-04T21:08:31.193Z,26.09
2018-08-04T21:11:01.157Z,26.00
2018-08-04T21:13:30.839Z,25.96
2018-08-04T21:16:00.640Z,25.96
2018-08-04T21:18:30.332Z,25.90
2018-08-04T21:20:59.996Z,25.90
2018-08-04T21:23:29.617Z,25.95
2018-08-04T21:25:59.320Z,25.91
2018-08-04T21:28:29.000Z,25.84
2018-08-04T21:30:58.727Z,25.84
2018-08-04T21:33:28.374Z,25.60
2018-08-04T21:35:58.040Z,25.53
2018-08-04T21:38:28.085Z,25.23
2018-08-04T21:40:57.710Z,25.25
2018-08-04T21:43:27.506Z,25.18
2018-08-04T21:45:57.196Z,25.16
2018-08-04T21:48:26.881Z,25.19
2018-08-04T21:50:56.746Z,25.12
2018-08-04T21:53:26.405Z,25.08
2018-08-04T21:55:56.175Z,25.05
2018-08-04T21:58:26.034Z,24.90
2018-08-04T22:01:01.007Z,24.65
2018-08-04T22:03:30.693Z,24.71
2018-08-04T22:06:00.326Z,24.73
2018-08-04T22:08:47.123Z,24.76
2018-08-04T22:11:17.817Z,24.68
2018-08-04T22:13:47.829Z,24.76
2018-08-04T22:16:17.448Z,24.81
2018-08-04T22:18:47.068Z,24.83
2018-08-04T22:21:17.242Z,24.74
2018-08-04T22:23:46.911Z,24.61
2018-08-04T22:26:16.552Z,24.47
2018-08-04T22:28:46.535Z,24.18
2018-08-04T22:31:16.289Z,24.22
2018-08-04T22:33:45.905Z,24.08
2018-08-04T22:36:15.618Z,24.11
2018-08-04T22:38:45.507Z,24.15
2018-08-04T22:41:15.207Z,24.05
2018-08-04T22:43:45.185Z,24.11
2018-08-04T22:46:17.097Z,23.99
2018-08-04T22:48:48.120Z,24.06
2018-08-04T22:51:23.113Z,24.04
2018-08-04T22:53:52.885Z,23.97
2018-08-04T22:56:22.935Z,23.93
2018-08-04T22:58:52.592Z,24.05
2018-08-04T23:01:22.337Z,24.06
2018-08-04T23:03:52.294Z,23.99
2018-08-04T23:06:22.001Z,23.82
2018-08-04T23:08:51.674Z,23.88
2018-08-04T23:11:21.262Z,23.85
2018-08-04T23:13:51.059Z,23.84
2018-08-04T23:16:21.016Z,23.84
2018-08-04T23:18:50.907Z,23.86
2018-08-04T23:21:27.266Z,23.92
2018-08-04T23:23:56.977Z,23.90
2018-08-04T23:26:26.652Z,23.91
2018-08-04T23:28:56.376Z,23.90
2018-08-04T23:31:26.373Z,23.87
2018-08-04T23:33:56.122Z,23.85
2018-08-04T23:36:25.793Z,23.66
2018-08-04T23:38:55.420Z,23.54
2018-08-04T23:41:25.103Z,23.58
2018-08-04T23:43:54.997Z,23.55
2018-08-04T23:46:25.045Z,23.50
2018-08-04T23:48:54.657Z,23.43
2018-08-04T23:51:24.393Z,23.50
2018-08-04T23:53:54.329Z,23.54
2018-08-04T23:56:24.170Z,23.55
2018-08-04T23:58:54.549Z,23.54
